Low Rocky Point, Australia
Current Conditions -  °F | °C
As of 10:00 AM on Friday 19 Dec 2014 (Local Time) from YMHB Reporting Station
Broken Clouds Broken Clouds  
Wind Chill: 59°   Ceiling: 5000
Heat Index: 59°   Visibility: 6mi
Dew Point: 37°   Wind: 8mph
Humidity: 45%   Direction: 200°SSW
Pressure: 29.88"   Gusts: NA
Location:  42.76°S, 145.54°E
Report Text: YMHB 182300Z 20007KT 200V280 9999 BKN050 15/03 Q1012
Loading
Personal Weather Stations






























Interactive Weather Map New forecast layout! Learn more

10-Day Weather Forecast

Advertisements
Track Severe Weather on mobile